sensor_id;sensor_type;location;lat;lon;timestamp;temperature;humidity
47520;DHT22;33252;48.122;11.538;2022-11-20T00:02:22;5.60;99.90
47520;DHT22;33252;48.122;11.538;2022-11-20T00:08:14;5.70;99.90
47520;DHT22;33252;48.122;11.538;2022-11-20T00:14:02;5.70;99.90
47520;DHT22;33252;48.122;11.538;2022-11-20T00:16:30;5.70;99.90
47520;DHT22;33252;48.122;11.538;2022-11-20T00:26:18;5.80;99.90
47520;DHT22;33252;48.122;11.538;2022-11-20T00:52:32;5.90;99.90
47520;DHT22;33252;48.122;11.538;2022-11-20T00:54:57;5.80;99.90
47520;DHT22;33252;48.122;11.538;2022-11-20T00:57:26;5.90;99.90
47520;DHT22;33252;48.122;11.538;2022-11-20T01:03:22;5.80;99.90
47520;DHT22;33252;48.122;11.538;2022-11-20T01:05:48;5.80;99.90
47520;DHT22;33252;48.122;11.538;2022-11-20T01:08:20;5.80;99.90
47520;DHT22;33252;48.122;11.538;2022-11-20T01:10:45;5.80;99.90
47520;DHT22;33252;48.122;11.538;2022-11-20T01:13:11;5.80;99.90
47520;DHT22;33252;48.122;11.538;2022-11-20T01:15:55;5.80;99.90
47520;DHT22;33252;48.122;11.538;2022-11-20T01:18:21;5.80;99.90
47520;DHT22;33252;48.122;11.538;2022-11-20T01:20:46;5.80;99.90
47520;DHT22;33252;48.122;11.538;2022-11-20T01:23:12;5.80;99.90
47520;DHT22;33252;48.122;11.538;2022-11-20T01:25:37;5.70;99.90
47520;DHT22;33252;48.122;11.538;2022-11-20T01:28:03;5.80;99.90
47520;DHT22;33252;48.122;11.538;2022-11-20T01:30:29;5.80;99.90
47520;DHT22;33252;48.122;11.538;2022-11-20T01:36:18;5.80;99.90
47520;DHT22;33252;48.122;11.538;2022-11-20T01:38:44;5.80;99.90
47520;DHT22;33252;48.122;11.538;2022-11-20T01:41:14;5.80;99.90
47520;DHT22;33252;48.122;11.538;2022-11-20T01:44:00;5.80;99.90
47520;DHT22;33252;48.122;11.538;2022-11-20T01:46:26;5.80;99.90
47520;DHT22;33252;48.122;11.538;2022-11-20T01:51:42;5.80;99.90
47520;DHT22;33252;48.122;11.538;2022-11-20T01:54:14;5.80;99.90
47520;DHT22;33252;48.122;11.538;2022-11-20T01:56:45;5.80;99.90
47520;DHT22;33252;48.122;11.538;2022-11-20T01:59:14;5.80;99.90
47520;DHT22;33252;48.122;11.538;2022-11-20T02:01:41;5.70;99.90
47520;DHT22;33252;48.122;11.538;2022-11-20T02:04:08;5.70;99.90
47520;DHT22;33252;48.122;11.538;2022-11-20T02:06:44;5.80;99.90
47520;DHT22;33252;48.122;11.538;2022-11-20T02:09:14;5.80;99.90
47520;DHT22;33252;48.122;11.538;2022-11-20T02:11:40;5.80;99.90
47520;DHT22;33252;48.122;11.538;2022-11-20T02:14:06;5.70;99.90
47520;DHT22;33252;48.122;11.538;2022-11-20T02:16:37;5.70;99.90
47520;DHT22;33252;48.122;11.538;2022-11-20T02:19:07;5.70;99.90
47520;DHT22;33252;48.122;11.538;2022-11-20T02:24:20;5.80;99.90
47520;DHT22;33252;48.122;11.538;2022-11-20T02:26:53;5.80;99.90
47520;DHT22;33252;48.122;11.538;2022-11-20T02:29:33;5.70;99.90
47520;DHT22;33252;48.122;11.538;2022-11-20T02:32:00;5.80;99.90
47520;DHT22;33252;48.122;11.538;2022-11-20T02:34:27;5.70;99.90
47520;DHT22;33252;48.122;11.538;2022-11-20T02:36:54;5.70;99.90
47520;DHT22;33252;48.122;11.538;2022-11-20T02:39:28;5.60;99.90
47520;DHT22;33252;48.122;11.538;2022-11-20T02:41:54;5.60;99.90
47520;DHT22;33252;48.122;11.538;2022-11-20T02:44:20;5.70;99.90
47520;DHT22;33252;48.122;11.538;2022-11-20T02:46:46;5.70;99.90
47520;DHT22;33252;48.122;11.538;2022-11-20T02:49:12;5.70;99.90
47520;DHT22;33252;48.122;11.538;2022-11-20T02:51:38;5.60;99.90
47520;DHT22;33252;48.122;11.538;2022-11-20T02:54:08;5.60;99.90
47520;DHT22;33252;48.122;11.538;2022-11-20T02:56:34;5.70;99.90
47520;DHT22;33252;48.122;11.538;2022-11-20T02:58:59;5.70;99.90
47520;DHT22;33252;48.122;11.538;2022-11-20T03:01:25;5.70;99.90
47520;DHT22;33252;48.122;11.538;2022-11-20T03:03:50;5.70;99.90
47520;DHT22;33252;48.122;11.538;2022-11-20T03:06:17;5.70;99.90
47520;DHT22;33252;48.122;11.538;2022-11-20T03:08:43;5.70;99.90
47520;DHT22;33252;48.122;11.538;2022-11-20T03:11:09;5.70;99.90
47520;DHT22;33252;48.122;11.538;2022-11-20T03:13:37;5.70;99.90
47520;DHT22;33252;48.122;11.538;2022-11-20T03:16:14;5.70;99.90
47520;DHT22;33252;48.122;11.538;2022-11-20T03:18:41;5.70;99.90
47520;DHT22;33252;48.122;11.538;2022-11-20T03:21:09;5.70;99.90
47520;DHT22;33252;48.122;11.538;2022-11-20T03:23:35;5.60;99.90
47520;DHT22;33252;48.122;11.538;2022-11-20T03:26:18;5.70;99.90
47520;DHT22;33252;48.122;11.538;2022-11-20T03:28:50;5.70;99.90
47520;DHT22;33252;48.122;11.538;2022-11-20T03:31:17;5.60;99.90
47520;DHT22;33252;48.122;11.538;2022-11-20T03:33:44;5.70;99.90
47520;DHT22;33252;48.122;11.538;2022-11-20T03:36:12;5.70;99.90
47520;DHT22;33252;48.122;11.538;2022-11-20T03:38:38;5.60;99.90
47520;DHT22;33252;48.122;11.538;2022-11-20T03:41:07;5.60;99.90
47520;DHT22;33252;48.122;11.538;2022-11-20T03:43:33;5.60;99.90
47520;DHT22;33252;48.122;11.538;2022-11-20T03:45:58;5.70;99.90
47520;DHT22;33252;48.122;11.538;2022-11-20T03:48:25;5.70;99.90
47520;DHT22;33252;48.122;11.538;2022-11-20T03:50:52;5.60;99.90
47520;DHT22;33252;48.122;11.538;2022-11-20T03:53:18;5.70;99.90
47520;DHT22;33252;48.122;11.538;2022-11-20T03:55:44;5.70;99.90
47520;DHT22;33252;48.122;11.538;2022-11-20T03:58:12;5.60;99.90
47520;DHT22;33252;48.122;11.538;2022-11-20T04:00:39;5.60;99.90
47520;DHT22;33252;48.122;11.538;2022-11-20T04:03:07;5.60;99.90
47520;DHT22;33252;48.122;11.538;2022-11-20T04:05:33;5.60;99.90
47520;DHT22;33252;48.122;11.538;2022-11-20T04:07:59;5.70;99.90
47520;DHT22;33252;48.122;11.538;2022-11-20T04:10:25;5.70;99.90
47520;DHT22;33252;48.122;11.538;2022-11-20T04:12:51;5.60;99.90
47520;DHT22;33252;48.122;11.538;2022-11-20T04:15:16;5.60;99.90
47520;DHT22;33252;48.122;11.538;2022-11-20T04:17:42;5.70;99.90
47520;DHT22;33252;48.122;11.538;2022-11-20T04:20:08;5.60;99.90
47520;DHT22;33252;48.122;11.538;2022-11-20T04:22:36;5.60;99.90
47520;DHT22;33252;48.122;11.538;2022-11-20T04:25:02;5.60;99.90
47520;DHT22;33252;48.122;11.538;2022-11-20T04:27:27;5.50;99.90
47520;DHT22;33252;48.122;11.538;2022-11-20T04:29:53;5.60;99.90
47520;DHT22;33252;48.122;11.538;2022-11-20T04:32:19;5.60;99.90
47520;DHT22;33252;48.122;11.538;2022-11-20T04:34:47;5.70;99.90
47520;DHT22;33252;48.122;11.538;2022-11-20T04:37:13;5.60;99.90
47520;DHT22;33252;48.122;11.538;2022-11-20T04:39:39;5.60;99.90
47520;DHT22;33252;48.122;11.538;2022-11-20T04:42:05;5.60;99.90
47520;DHT22;33252;48.122;11.538;2022-11-20T04:44:49;5.50;99.90
47520;DHT22;33252;48.122;11.538;2022-11-20T04:47:15;5.60;99.90
47520;DHT22;33252;48.122;11.538;2022-11-20T04:49:40;5.60;99.90
47520;DHT22;33252;48.122;11.538;2022-11-20T04:52:06;5.60;99.90
47520;DHT22;33252;48.122;11.538;2022-11-20T04:54:31;5.50;99.90
47520;DHT22;33252;48.122;11.538;2022-11-20T04:56:57;5.50;99.90
47520;DHT22;33252;48.122;11.538;2022-11-20T04:59:25;5.50;99.90
47520;DHT22;33252;48.122;11.538;2022-11-20T05:01:51;5.60;99.90
47520;DHT22;33252;48.122;11.538;2022-11-20T05:04:17;5.50;99.90
47520;DHT22;33252;48.122;11.538;2022-11-20T05:06:42;5.60;99.90
47520;DHT22;33252;48.122;11.538;2022-11-20T05:09:13;5.60;99.90
47520;DHT22;33252;48.122;11.538;2022-11-20T05:11:39;5.60;99.90
47520;DHT22;33252;48.122;11.538;2022-11-20T05:14:07;5.60;99.90
47520;DHT22;33252;48.122;11.538;2022-11-20T05:16:34;5.70;99.90
47520;DHT22;33252;48.122;11.538;2022-11-20T05:19:00;5.60;99.90
47520;DHT22;33252;48.122;11.538;2022-11-20T05:21:25;5.60;99.90
47520;DHT22;33252;48.122;11.538;2022-11-20T05:23:54;5.60;99.90
47520;DHT22;33252;48.122;11.538;2022-11-20T05:26:22;5.60;99.90
47520;DHT22;33252;48.122;11.538;2022-11-20T05:28:49;5.60;99.90
47520;DHT22;33252;48.122;11.538;2022-11-20T05:31:20;5.60;99.90
47520;DHT22;33252;48.122;11.538;2022-11-20T05:33:46;5.50;99.90
47520;DHT22;33252;48.122;11.538;2022-11-20T05:36:13;5.50;99.90
47520;DHT22;33252;48.122;11.538;2022-11-20T05:38:42;5.50;99.90
47520;DHT22;33252;48.122;11.538;2022-11-20T05:41:26;5.60;99.90
47520;DHT22;33252;48.122;11.538;2022-11-20T05:43:52;5.60;99.90
47520;DHT22;33252;48.122;11.538;2022-11-20T05:46:23;5.60;99.90
47520;DHT22;33252;48.122;11.538;2022-11-20T05:48:49;5.50;99.90
47520;DHT22;33252;48.122;11.538;2022-11-20T05:51:17;5.50;99.90
47520;DHT22;33252;48.122;11.538;2022-11-20T05:53:44;5.60;99.90
47520;DHT22;33252;48.122;11.538;2022-11-20T05:56:12;5.50;99.90
47520;DHT22;33252;48.122;11.538;2022-11-20T05:58:39;5.50;99.90
47520;DHT22;33252;48.122;11.538;2022-11-20T06:01:39;5.50;99.90
47520;DHT22;33252;48.122;11.538;2022-11-20T06:03:58;5.60;99.90
47520;DHT22;33252;48.122;11.538;2022-11-20T06:06:23;5.50;99.90
47520;DHT22;33252;48.122;11.538;2022-11-20T06:08:51;5.60;99.90
47520;DHT22;33252;48.122;11.538;2022-11-20T06:11:17;5.50;99.90
47520;DHT22;33252;48.122;11.538;2022-11-20T06:13:43;5.50;99.90
47520;DHT22;33252;48.122;11.538;2022-11-20T06:16:10;5.50;99.90
47520;DHT22;33252;48.122;11.538;2022-11-20T06:18:36;5.50;99.90
47520;DHT22;33252;48.122;11.538;2022-11-20T06:21:11;5.50;99.90
47520;DHT22;33252;48.122;11.538;2022-11-20T06:23:37;5.40;99.90
47520;DHT22;33252;48.122;11.538;2022-11-20T06:26:05;5.40;99.90
47520;DHT22;33252;48.122;11.538;2022-11-20T06:28:31;5.30;99.90
47520;DHT22;33252;48.122;11.538;2022-11-20T06:30:57;5.40;99.90
47520;DHT22;33252;48.122;11.538;2022-11-20T06:33:23;5.30;99.90
47520;DHT22;33252;48.122;11.538;2022-11-20T06:35:49;5.30;99.90
47520;DHT22;33252;48.122;11.538;2022-11-20T06:38:15;5.30;99.90
47520;DHT22;33252;48.122;11.538;2022-11-20T06:40:41;5.30;99.90
47520;DHT22;33252;48.122;11.538;2022-11-20T06:43:10;5.20;99.90
47520;DHT22;33252;48.122;11.538;2022-11-20T06:45:36;5.20;99.90
47520;DHT22;33252;48.122;11.538;2022-11-20T06:48:03;5.20;99.90
47520;DHT22;33252;48.122;11.538;2022-11-20T06:50:29;5.20;99.90
47520;DHT22;33252;48.122;11.538;2022-11-20T06:52:55;5.30;99.90
47520;DHT22;33252;48.122;11.538;2022-11-20T06:55:20;5.30;99.90
47520;DHT22;33252;48.122;11.538;2022-11-20T06:57:46;5.30;99.90
47520;DHT22;33252;48.122;11.538;2022-11-20T07:00:12;5.30;99.90
47520;DHT22;33252;48.122;11.538;2022-11-20T07:02:38;5.40;99.90
47520;DHT22;33252;48.122;11.538;2022-11-20T07:05:03;5.40;99.90
47520;DHT22;33252;48.122;11.538;2022-11-20T07:07:29;5.40;99.90
47520;DHT22;33252;48.122;11.538;2022-11-20T07:09:55;5.40;99.90
47520;DHT22;33252;48.122;11.538;2022-11-20T07:12:20;5.40;99.90
47520;DHT22;33252;48.122;11.538;2022-11-20T07:14:46;5.50;99.90
47520;DHT22;33252;48.122;11.538;2022-11-20T07:17:12;5.50;99.90
47520;DHT22;33252;48.122;11.538;2022-11-20T07:19:38;5.50;99.90
47520;DHT22;33252;48.122;11.538;2022-11-20T07:22:04;5.50;99.90
47520;DHT22;33252;48.122;11.538;2022-11-20T07:24:30;5.50;99.90
47520;DHT22;33252;48.122;11.538;2022-11-20T07:26:55;5.50;99.90
47520;DHT22;33252;48.122;11.538;2022-11-20T07:29:21;5.40;99.90
47520;DHT22;33252;48.122;11.538;2022-11-20T07:31:46;5.50;99.90
47520;DHT22;33252;48.122;11.538;2022-11-20T07:34:12;5.50;99.90
47520;DHT22;33252;48.122;11.538;2022-11-20T07:36:38;5.50;99.90
47520;DHT22;33252;48.122;11.538;2022-11-20T07:39:04;5.50;99.90
47520;DHT22;33252;48.122;11.538;2022-11-20T07:41:29;5.50;99.90
47520;DHT22;33252;48.122;11.538;2022-11-20T07:43:55;5.50;99.90
47520;DHT22;33252;48.122;11.538;2022-11-20T07:46:21;5.50;99.90
47520;DHT22;33252;48.122;11.538;2022-11-20T07:48:46;5.60;99.90
47520;DHT22;33252;48.122;11.538;2022-11-20T07:51:12;5.50;99.90
47520;DHT22;33252;48.122;11.538;2022-11-20T07:53:38;5.50;99.90
47520;DHT22;33252;48.122;11.538;2022-11-20T07:56:04;5.60;99.90
47520;DHT22;33252;48.122;11.538;2022-11-20T07:58:31;5.60;99.90
47520;DHT22;33252;48.122;11.538;2022-11-20T08:01:02;5.60;99.90
47520;DHT22;33252;48.122;11.538;2022-11-20T08:03:28;5.60;99.90
47520;DHT22;33252;48.122;11.538;2022-11-20T08:05:54;5.60;99.90
47520;DHT22;33252;48.122;11.538;2022-11-20T08:08:19;5.60;99.90
47520;DHT22;33252;48.122;11.538;2022-11-20T08:10:46;5.70;99.90
47520;DHT22;33252;48.122;11.538;2022-11-20T08:13:12;5.80;99.90
47520;DHT22;33252;48.122;11.538;2022-11-20T08:15:56;5.70;99.90
47520;DHT22;33252;48.122;11.538;2022-11-20T08:18:22;5.70;99.90
47520;DHT22;33252;48.122;11.538;2022-11-20T08:20:48;5.80;99.90
47520;DHT22;33252;48.122;11.538;2022-11-20T08:23:13;5.80;99.90
47520;DHT22;33252;48.122;11.538;2022-11-20T08:25:39;5.80;99.90
47520;DHT22;33252;48.122;11.538;2022-11-20T08:28:08;5.80;99.90
47520;DHT22;33252;48.122;11.538;2022-11-20T08:30:34;5.70;99.90
47520;DHT22;33252;48.122;11.538;2022-11-20T08:33:03;5.80;99.90
47520;DHT22;33252;48.122;11.538;2022-11-20T08:35:33;5.90;99.90
47520;DHT22;33252;48.122;11.538;2022-11-20T08:37:59;5.90;99.90
47520;DHT22;33252;48.122;11.538;2022-11-20T08:40:24;6.00;99.90
47520;DHT22;33252;48.122;11.538;2022-11-20T08:42:50;6.00;99.90
47520;DHT22;33252;48.122;11.538;2022-11-20T08:45:17;6.00;99.90
47520;DHT22;33252;48.122;11.538;2022-11-20T08:47:44;6.00;99.90
47520;DHT22;33252;48.122;11.538;2022-11-20T08:50:11;6.00;99.90
47520;DHT22;33252;48.122;11.538;2022-11-20T08:52:37;6.10;99.90
47520;DHT22;33252;48.122;11.538;2022-11-20T08:55:04;6.10;99.90
47520;DHT22;33252;48.122;11.538;2022-11-20T08:57:34;6.00;99.90
47520;DHT22;33252;48.122;11.538;2022-11-20T09:00:00;6.10;99.90
47520;DHT22;33252;48.122;11.538;2022-11-20T09:02:27;6.20;99.90
47520;DHT22;33252;48.122;11.538;2022-11-20T09:04:52;6.30;99.90
47520;DHT22;33252;48.122;11.538;2022-11-20T09:07:19;6.20;99.90
47520;DHT22;33252;48.122;11.538;2022-11-20T09:09:45;6.20;99.90
47520;DHT22;33252;48.122;11.538;2022-11-20T09:12:10;6.20;99.90
47520;DHT22;33252;48.122;11.538;2022-11-20T09:14:36;6.30;99.90
47520;DHT22;33252;48.122;11.538;2022-11-20T09:17:02;6.30;99.90
47520;DHT22;33252;48.122;11.538;2022-11-20T09:19:27;6.40;99.90
47520;DHT22;33252;48.122;11.538;2022-11-20T09:21:53;6.40;99.90
47520;DHT22;33252;48.122;11.538;2022-11-20T09:24:19;6.50;99.90
47520;DHT22;33252;48.122;11.538;2022-11-20T09:26:46;6.40;99.90
47520;DHT22;33252;48.122;11.538;2022-11-20T09:29:12;6.50;99.90
47520;DHT22;33252;48.122;11.538;2022-11-20T09:31:38;6.50;99.90
47520;DHT22;33252;48.122;11.538;2022-11-20T09:34:03;6.50;99.90
47520;DHT22;33252;48.122;11.538;2022-11-20T09:36:29;6.60;99.90
47520;DHT22;33252;48.122;11.538;2022-11-20T09:38:55;6.50;99.90
47520;DHT22;33252;48.122;11.538;2022-11-20T09:46:44;6.70;99.90
47520;DHT22;33252;48.122;11.538;2022-11-20T09:49:49;6.70;99.90
47520;DHT22;33252;48.122;11.538;2022-11-20T09:52:41;6.70;99.90
47520;DHT22;33252;48.122;11.538;2022-11-20T09:55:12;6.80;99.70
47520;DHT22;33252;48.122;11.538;2022-11-20T09:57:44;6.80;99.20
47520;DHT22;33252;48.122;11.538;2022-11-20T10:00:13;6.80;99.30
47520;DHT22;33252;48.122;11.538;2022-11-20T10:05:44;7.20;98.40
47520;DHT22;33252;48.122;11.538;2022-11-20T10:08:24;7.40;98.80
47520;DHT22;33252;48.122;11.538;2022-11-20T10:10:54;7.40;98.00
47520;DHT22;33252;48.122;11.538;2022-11-20T10:18:54;7.60;97.80
47520;DHT22;33252;48.122;11.538;2022-11-20T10:29:33;7.50;97.60
47520;DHT22;33252;48.122;11.538;2022-11-20T10:32:07;7.60;97.40
47520;DHT22;33252;48.122;11.538;2022-11-20T10:37:18;7.70;97.20
47520;DHT22;33252;48.122;11.538;2022-11-20T10:42:16;7.80;97.20
47520;DHT22;33252;48.122;11.538;2022-11-20T10:44:50;7.80;97.10
47520;DHT22;33252;48.122;11.538;2022-11-20T10:47:28;7.70;96.50
47520;DHT22;33252;48.122;11.538;2022-11-20T10:49:58;7.70;96.60
47520;DHT22;33252;48.122;11.538;2022-11-20T11:00:20;7.60;96.80
47520;DHT22;33252;48.122;11.538;2022-11-20T11:02:53;7.60;97.00
47520;DHT22;33252;48.122;11.538;2022-11-20T11:05:22;7.60;96.90
47520;DHT22;33252;48.122;11.538;2022-11-20T11:07:53;7.50;97.30
47520;DHT22;33252;48.122;11.538;2022-11-20T11:13:03;7.60;97.60
47520;DHT22;33252;48.122;11.538;2022-11-20T11:15:40;7.60;97.30
47520;DHT22;33252;48.122;11.538;2022-11-20T11:18:10;7.60;97.40
47520;DHT22;33252;48.122;11.538;2022-11-20T11:20:36;7.60;97.50
47520;DHT22;33252;48.122;11.538;2022-11-20T11:23:03;7.60;97.50
47520;DHT22;33252;48.122;11.538;2022-11-20T11:25:37;7.50;96.80
47520;DHT22;33252;48.122;11.538;2022-11-20T11:28:24;7.40;97.10
47520;DHT22;33252;48.122;11.538;2022-11-20T11:30:51;7.40;97.10
47520;DHT22;33252;48.122;11.538;2022-11-20T11:33:27;7.50;97.50
47520;DHT22;33252;48.122;11.538;2022-11-20T11:35:58;7.40;97.10
47520;DHT22;33252;48.122;11.538;2022-11-20T11:38:35;7.40;97.20
47520;DHT22;33252;48.122;11.538;2022-11-20T11:41:03;7.40;97.60
47520;DHT22;33252;48.122;11.538;2022-11-20T11:43:32;7.50;97.90
47520;DHT22;33252;48.122;11.538;2022-11-20T11:51:41;7.50;97.50
47520;DHT22;33252;48.122;11.538;2022-11-20T11:56:54;7.50;97.00
47520;DHT22;33252;48.122;11.538;2022-11-20T11:59:29;7.60;97.50
47520;DHT22;33252;48.122;11.538;2022-11-20T12:02:01;7.70;97.50
47520;DHT22;33252;48.122;11.538;2022-11-20T12:04:50;7.80;96.90
47520;DHT22;33252;48.122;11.538;2022-11-20T12:10:02;7.50;96.80
47520;DHT22;33252;48.122;11.538;2022-11-20T12:12:42;7.40;97.20
47520;DHT22;33252;48.122;11.538;2022-11-20T12:15:27;7.20;99.90
47520;DHT22;33252;48.122;11.538;2022-11-20T12:17:54;6.70;99.90
47520;DHT22;33252;48.122;11.538;2022-11-20T12:20:20;6.70;99.90
47520;DHT22;33252;48.122;11.538;2022-11-20T12:23:10;6.70;99.90
47520;DHT22;33252;48.122;11.538;2022-11-20T12:25:41;6.70;99.90
47520;DHT22;33252;48.122;11.538;2022-11-20T12:28:18;6.70;99.90
47520;DHT22;33252;48.122;11.538;2022-11-20T12:39:40;6.50;99.90
47520;DHT22;33252;48.122;11.538;2022-11-20T12:48:19;6.40;99.90
47520;DHT22;33252;48.122;11.538;2022-11-20T12:51:34;6.40;99.90
47520;DHT22;33252;48.122;11.538;2022-11-20T12:54:20;6.50;99.90
47520;DHT22;33252;48.122;11.538;2022-11-20T13:07:13;6.40;99.90
47520;DHT22;33252;48.122;11.538;2022-11-20T13:09:49;6.50;99.90
47520;DHT22;33252;48.122;11.538;2022-11-20T13:12:40;6.50;99.90
47520;DHT22;33252;48.122;11.538;2022-11-20T13:18:02;6.50;99.90
47520;DHT22;33252;48.122;11.538;2022-11-20T13:20:29;6.50;99.90
47520;DHT22;33252;48.122;11.538;2022-11-20T13:22:56;6.40;99.90
47520;DHT22;33252;48.122;11.538;2022-11-20T13:25:35;6.10;99.90
47520;DHT22;33252;48.122;11.538;2022-11-20T13:30:36;6.10;99.90
47520;DHT22;33252;48.122;11.538;2022-11-20T13:36:02;6.20;99.90
47520;DHT22;33252;48.122;11.538;2022-11-20T13:38:39;6.20;99.90
47520;DHT22;33252;48.122;11.538;2022-11-20T13:41:08;6.30;99.90
47520;DHT22;33252;48.122;11.538;2022-11-20T13:43:52;6.30;99.90
47520;DHT22;33252;48.122;11.538;2022-11-20T13:46:19;6.20;99.90
47520;DHT22;33252;48.122;11.538;2022-11-20T13:48:50;6.20;99.90
47520;DHT22;33252;48.122;11.538;2022-11-20T14:00:13;6.30;99.90
47520;DHT22;33252;48.122;11.538;2022-11-20T14:02:40;6.40;99.90
47520;DHT22;33252;48.122;11.538;2022-11-20T14:05:22;6.40;99.90
47520;DHT22;33252;48.122;11.538;2022-11-20T14:07:49;6.50;99.90
47520;DHT22;33252;48.122;11.538;2022-11-20T14:10:29;6.40;99.90
47520;DHT22;33252;48.122;11.538;2022-11-20T14:12:54;6.50;99.90
47520;DHT22;33252;48.122;11.538;2022-11-20T14:15:29;6.50;99.90
47520;DHT22;33252;48.122;11.538;2022-11-20T14:17:55;6.60;99.90
47520;DHT22;33252;48.122;11.538;2022-11-20T14:20:25;6.70;99.90
47520;DHT22;33252;48.122;11.538;2022-11-20T14:22:53;6.60;99.90
47520;DHT22;33252;48.122;11.538;2022-11-20T14:25:26;6.70;99.90
47520;DHT22;33252;48.122;11.538;2022-11-20T14:28:00;6.60;99.90
47520;DHT22;33252;48.122;11.538;2022-11-20T14:30:38;6.60;99.90
47520;DHT22;33252;48.122;11.538;2022-11-20T14:33:11;6.50;99.90
47520;DHT22;33252;48.122;11.538;2022-11-20T14:35:44;6.50;99.90
47520;DHT22;33252;48.122;11.538;2022-11-20T14:38:13;6.60;99.90
47520;DHT22;33252;48.122;11.538;2022-11-20T14:40:39;6.50;99.90
47520;DHT22;33252;48.122;11.538;2022-11-20T14:43:23;6.50;99.90
47520;DHT22;33252;48.122;11.538;2022-11-20T14:45:58;6.50;99.90
47520;DHT22;33252;48.122;11.538;2022-11-20T14:48:30;6.50;99.90
47520;DHT22;33252;48.122;11.538;2022-11-20T14:50:57;6.50;99.90
47520;DHT22;33252;48.122;11.538;2022-11-20T14:53:24;6.50;99.90
47520;DHT22;33252;48.122;11.538;2022-11-20T14:55:58;6.50;99.90
47520;DHT22;33252;48.122;11.538;2022-11-20T14:58:27;6.40;99.90
47520;DHT22;33252;48.122;11.538;2022-11-20T15:00:58;6.40;99.90
47520;DHT22;33252;48.122;11.538;2022-11-20T15:03:37;6.40;99.90
47520;DHT22;33252;48.122;11.538;2022-11-20T15:06:04;6.40;99.90
47520;DHT22;33252;48.122;11.538;2022-11-20T15:08:30;6.40;99.90
47520;DHT22;33252;48.122;11.538;2022-11-20T15:10:56;6.40;99.90
47520;DHT22;33252;48.122;11.538;2022-11-20T15:15:54;6.30;99.90
47520;DHT22;33252;48.122;11.538;2022-11-20T15:18:26;6.20;99.90
47520;DHT22;33252;48.122;11.538;2022-11-20T15:20:55;6.30;99.90
47520;DHT22;33252;48.122;11.538;2022-11-20T15:23:21;6.20;99.90
47520;DHT22;33252;48.122;11.538;2022-11-20T15:25:48;6.30;99.90
47520;DHT22;33252;48.122;11.538;2022-11-20T15:28:18;6.20;99.90
47520;DHT22;33252;48.122;11.538;2022-11-20T15:30:45;6.20;99.90
47520;DHT22;33252;48.122;11.538;2022-11-20T15:33:11;6.20;99.90
47520;DHT22;33252;48.122;11.538;2022-11-20T15:35:38;6.20;99.90
47520;DHT22;33252;48.122;11.538;2022-11-20T15:38:03;6.10;99.90
47520;DHT22;33252;48.122;11.538;2022-11-20T15:40:29;6.20;99.90
47520;DHT22;33252;48.122;11.538;2022-11-20T15:42:55;6.10;99.90
47520;DHT22;33252;48.122;11.538;2022-11-20T15:45:59;6.00;99.90
47520;DHT22;33252;48.122;11.538;2022-11-20T15:48:52;5.90;99.90
47520;DHT22;33252;48.122;11.538;2022-11-20T15:51:27;5.90;99.90
47520;DHT22;33252;48.122;11.538;2022-11-20T15:53:54;5.90;99.90
47520;DHT22;33252;48.122;11.538;2022-11-20T15:56:20;5.80;99.90
47520;DHT22;33252;48.122;11.538;2022-11-20T15:58:45;5.80;99.90
47520;DHT22;33252;48.122;11.538;2022-11-20T16:01:13;5.80;99.90
47520;DHT22;33252;48.122;11.538;2022-11-20T16:03:39;5.80;99.90
47520;DHT22;33252;48.122;11.538;2022-11-20T16:06:05;5.70;99.90
47520;DHT22;33252;48.122;11.538;2022-11-20T16:08:31;5.70;99.90
47520;DHT22;33252;48.122;11.538;2022-11-20T16:10:57;5.80;99.90
47520;DHT22;33252;48.122;11.538;2022-11-20T16:13:22;5.70;99.90
47520;DHT22;33252;48.122;11.538;2022-11-20T16:16:22;5.70;99.90
47520;DHT22;33252;48.122;11.538;2022-11-20T16:18:49;5.60;99.90
47520;DHT22;33252;48.122;11.538;2022-11-20T16:21:15;5.50;99.90
47520;DHT22;33252;48.122;11.538;2022-11-20T16:23:41;5.50;99.90
47520;DHT22;33252;48.122;11.538;2022-11-20T16:26:16;5.50;99.90
47520;DHT22;33252;48.122;11.538;2022-11-20T16:28:46;5.50;99.90
47520;DHT22;33252;48.122;11.538;2022-11-20T16:31:17;5.50;99.90
47520;DHT22;33252;48.122;11.538;2022-11-20T16:33:49;5.50;99.90
47520;DHT22;33252;48.122;11.538;2022-11-20T16:36:16;5.50;99.90
47520;DHT22;33252;48.122;11.538;2022-11-20T16:38:42;5.50;99.90
47520;DHT22;33252;48.122;11.538;2022-11-20T16:41:09;5.50;99.90
47520;DHT22;33252;48.122;11.538;2022-11-20T16:43:50;5.40;99.90
47520;DHT22;33252;48.122;11.538;2022-11-20T16:46:18;5.40;99.90
47520;DHT22;33252;48.122;11.538;2022-11-20T16:48:44;5.40;99.90
47520;DHT22;33252;48.122;11.538;2022-11-20T16:51:11;5.40;99.90
47520;DHT22;33252;48.122;11.538;2022-11-20T16:53:37;5.30;99.90
47520;DHT22;33252;48.122;11.538;2022-11-20T16:56:18;5.30;99.90
47520;DHT22;33252;48.122;11.538;2022-11-20T16:58:45;5.20;99.90
47520;DHT22;33252;48.122;11.538;2022-11-20T17:01:14;5.20;99.90
47520;DHT22;33252;48.122;11.538;2022-11-20T17:03:41;5.10;99.90
47520;DHT22;33252;48.122;11.538;2022-11-20T17:06:22;5.10;99.90
47520;DHT22;33252;48.122;11.538;2022-11-20T17:08:48;5.20;99.90
47520;DHT22;33252;48.122;11.538;2022-11-20T17:11:16;5.10;99.90
47520;DHT22;33252;48.122;11.538;2022-11-20T17:13:43;5.10;99.90
47520;DHT22;33252;48.122;11.538;2022-11-20T17:16:14;5.10;99.90
47520;DHT22;33252;48.122;11.538;2022-11-20T17:18:40;5.10;99.90
47520;DHT22;33252;48.122;11.538;2022-11-20T17:21:06;5.00;99.90
47520;DHT22;33252;48.122;11.538;2022-11-20T17:23:36;5.00;99.90
47520;DHT22;33252;48.122;11.538;2022-11-20T17:26:07;5.00;99.90
47520;DHT22;33252;48.122;11.538;2022-11-20T17:28:34;4.90;99.90
47520;DHT22;33252;48.122;11.538;2022-11-20T17:31:01;4.90;99.90
47520;DHT22;33252;48.122;11.538;2022-11-20T17:33:28;4.90;99.90
47520;DHT22;33252;48.122;11.538;2022-11-20T17:35:54;4.70;99.90
47520;DHT22;33252;48.122;11.538;2022-11-20T17:38:20;4.70;99.90
47520;DHT22;33252;48.122;11.538;2022-11-20T17:40:46;4.70;99.90
47520;DHT22;33252;48.122;11.538;2022-11-20T17:43:11;4.70;99.90
47520;DHT22;33252;48.122;11.538;2022-11-20T17:45:37;4.80;99.90
47520;DHT22;33252;48.122;11.538;2022-11-20T17:48:03;4.80;99.90
47520;DHT22;33252;48.122;11.538;2022-11-20T17:50:28;4.70;99.90
47520;DHT22;33252;48.122;11.538;2022-11-20T17:52:54;4.80;99.90
47520;DHT22;33252;48.122;11.538;2022-11-20T17:55:20;4.70;99.90
47520;DHT22;33252;48.122;11.538;2022-11-20T17:57:45;4.60;99.90
47520;DHT22;33252;48.122;11.538;2022-11-20T18:00:18;4.60;99.90
47520;DHT22;33252;48.122;11.538;2022-11-20T18:02:44;4.60;99.90
47520;DHT22;33252;48.122;11.538;2022-11-20T18:05:10;4.60;99.90
47520;DHT22;33252;48.122;11.538;2022-11-20T18:07:36;4.60;99.90